Time;durP1;ratioP1;P1;durP2;ratioP2;P2;SDS_P1;SDS_P2;PMS_P1;PMS_P2;Temp;Humidity;BMP_temperature;BMP_pressure;BME280_temperature;BME280_humidity;BME280_pressure;Samples;Min_cycle;Max_cycle;Signal;HPM_P1;HPM_P2
2022/07/25 00:00:29;;;;;;;6.20;5.60;;;24.10;97.80;;;;;;5094889;28;20036;-77
2022/07/25 00:02:55;;;;;;;5.88;5.45;;;24.20;97.90;;;;;;5079158;28;20027;-77
2022/07/25 00:05:21;;;;;;;5.72;5.22;;;24.10;98.00;;;;;;5094867;28;20039;-77
2022/07/25 00:07:47;;;;;;;5.57;5.07;;;24.00;98.00;;;;;;5096015;28;20028;-77
2022/07/25 00:10:13;;;;;;;5.63;5.13;;;24.00;98.10;;;;;;5096197;28;20020;-77
2022/07/25 00:12:39;;;;;;;8.73;6.78;;;24.00;98.20;;;;;;5093748;28;20054;-77
2022/07/25 00:15:05;;;;;;;8.10;6.65;;;24.20;98.60;;;;;;5094118;28;20024;-77
2022/07/25 00:17:31;;;;;;;7.30;6.38;;;24.00;99.10;;;;;;5093446;28;20024;-76
2022/07/25 00:19:56;;;;;;;7.82;7.07;;;23.90;99.10;;;;;;5093665;28;20016;-77
2022/07/25 00:22:22;;;;;;;7.32;6.72;;;23.80;99.50;;;;;;5094028;28;20026;-76
2022/07/25 00:24:47;;;;;;;8.30;7.40;;;23.60;99.90;;;;;;5092642;28;20038;-76
2022/07/25 00:27:13;;;;;;;7.57;6.88;;;23.50;99.90;;;;;;5093627;28;20028;-77
2022/07/25 00:29:39;;;;;;;7.13;6.32;;;23.40;99.90;;;;;;5093503;28;20027;-76
2022/07/25 00:32:05;;;;;;;6.70;6.20;;;23.30;99.90;;;;;;5092877;28;20024;-78
2022/07/25 00:34:30;;;;;;;7.78;7.18;;;23.20;99.90;;;;;;5093839;28;20073;-77
2022/07/25 00:36:56;;;;;;;7.70;7.05;;;23.20;99.90;;;;;;5092193;28;20085;-78
2022/07/25 00:39:21;;;;;;;6.85;6.25;;;23.20;99.90;;;;;;5093503;28;20023;-77
2022/07/25 00:41:47;;;;;;;13.20;7.80;;;23.20;99.90;;;;;;5093112;28;20106;-77
2022/07/25 00:44:23;;;;;;;8.27;7.47;;;23.20;99.90;;;;;;5092691;28;20086;-77
2022/07/25 00:46:48;;;;;;;7.88;7.20;;;23.20;99.90;;;;;;5092970;28;20382;-77
2022/07/25 00:49:14;;;;;;;7.47;6.85;;;23.10;99.90;;;;;;5093301;28;20027;-77
2022/07/25 00:51:39;;;;;;;8.55;7.75;;;23.10;99.90;;;;;;5092567;28;20038;-76
2022/07/25 00:54:05;;;;;;;9.82;7.68;;;23.00;99.90;;;;;;5092698;28;20444;-76
2022/07/25 00:56:31;;;;;;;9.07;8.27;;;23.10;99.90;;;;;;5092941;28;20020;-76
2022/07/25 00:58:57;;;;;;;9.38;8.48;;;23.00;99.90;;;;;;5091920;28;20494;-77
2022/07/25 01:01:23;;;;;;;9.13;8.30;;;23.00;99.90;;;;;;5068657;28;20024;-77
2022/07/25 01:03:48;;;;;;;8.93;8.13;;;23.00;99.90;;;;;;5084198;28;20514;-77
2022/07/25 01:06:14;;;;;;;10.27;8.18;;;22.90;99.90;;;;;;5092068;28;20016;-78
2022/07/25 01:08:40;;;;;;;8.15;7.40;;;22.90;99.90;;;;;;5092979;28;20024;-77
2022/07/25 01:11:06;;;;;;;8.25;7.70;;;22.90;99.90;;;;;;5092531;28;20044;-77
2022/07/25 01:13:33;;;;;;;9.25;8.45;;;23.00;99.90;;;;;;5092392;28;20506;-77
2022/07/25 01:15:59;;;;;;;9.10;8.32;;;22.90;99.90;;;;;;5092993;28;20039;-78
2022/07/25 01:18:24;;;;;;;8.70;8.07;;;22.90;99.90;;;;;;5092718;28;20024;-77
2022/07/25 01:20:50;;;;;;;8.88;8.00;;;22.80;99.90;;;;;;5091816;28;20050;-77
2022/07/25 01:23:15;;;;;;;8.27;7.47;;;22.80;99.90;;;;;;5092601;28;20028;-77
2022/07/25 01:25:41;;;;;;;8.23;7.53;;;22.70;99.90;;;;;;5092608;28;20555;-77
2022/07/25 01:28:07;;;;;;;9.07;8.30;;;22.80;99.90;;;;;;5091778;28;20024;-77
2022/07/25 01:30:32;;;;;;;7.72;7.13;;;22.70;99.90;;;;;;5088054;28;20027;-78
2022/07/25 01:32:58;;;;;;;7.93;7.20;;;22.70;99.90;;;;;;5071966;28;20096;-76
2022/07/25 01:35:24;;;;;;;9.48;8.48;;;22.70;99.90;;;;;;5075229;28;20028;-76
2022/07/25 01:37:49;;;;;;;8.07;6.90;;;22.70;99.90;;;;;;5087156;28;20032;-77
2022/07/25 01:40:15;;;;;;;8.50;7.60;;;22.70;99.90;;;;;;5077920;28;20024;-77
2022/07/25 01:42:42;;;;;;;7.78;7.07;;;22.60;99.90;;;;;;5078552;28;20028;-77
2022/07/25 01:45:08;;;;;;;7.70;6.88;;;22.60;99.90;;;;;;5092472;28;20574;-77
2022/07/25 01:47:34;;;;;;;8.23;7.47;;;22.60;99.90;;;;;;5073627;28;20036;-76
2022/07/25 01:49:59;;;;;;;8.20;7.45;;;22.50;99.90;;;;;;5082196;28;20468;-77
2022/07/25 01:52:25;;;;;;;8.07;7.38;;;22.50;99.90;;;;;;5092333;28;20015;-76
2022/07/25 01:54:50;;;;;;;8.27;7.53;;;22.50;99.90;;;;;;5091674;28;20028;-77
2022/07/25 01:57:16;;;;;;;8.10;7.50;;;22.50;99.90;;;;;;5093003;28;20024;-77
2022/07/25 01:59:41;;;;;;;7.78;7.18;;;22.50;99.90;;;;;;5093104;28;20070;-76
2022/07/25 02:02:08;;;;;;;8.88;8.07;;;22.50;99.90;;;;;;5091646;28;20034;-76
2022/07/25 02:04:34;;;;;;;8.10;7.45;;;22.40;99.90;;;;;;5088567;28;20131;-76
2022/07/25 02:07:00;;;;;;;9.68;8.80;;;22.40;99.90;;;;;;5079843;28;20107;-77
2022/07/25 02:09:26;;;;;;;9.23;8.35;;;22.40;99.90;;;;;;5091427;28;20447;-76
2022/07/25 02:11:52;;;;;;;9.38;8.55;;;22.30;99.90;;;;;;5085943;28;20062;-76
2022/07/25 02:14:17;;;;;;;9.32;8.55;;;22.30;99.90;;;;;;5075746;28;20032;-76
2022/07/25 02:16:43;;;;;;;9.82;9.02;;;22.30;99.90;;;;;;5094386;28;20012;-77
2022/07/25 02:19:09;;;;;;;9.40;8.63;;;22.30;99.90;;;;;;5084837;28;20024;-77
2022/07/25 02:21:34;;;;;;;9.20;8.27;;;22.30;99.90;;;;;;5092801;28;20406;-76
2022/07/25 02:24:00;;;;;;;10.02;9.10;;;22.30;99.90;;;;;;5094504;28;20031;-77
2022/07/25 02:26:26;;;;;;;10.02;8.80;;;22.20;99.90;;;;;;5095708;28;20418;-76
2022/07/25 02:28:52;;;;;;;10.27;9.43;;;22.20;99.90;;;;;;5095386;28;20020;-76
2022/07/25 02:31:17;;;;;;;11.77;9.40;;;22.20;99.90;;;;;;5094873;28;20114;-76
2022/07/25 02:33:43;;;;;;;11.48;10.30;;;22.20;99.90;;;;;;5095712;28;20020;-77
2022/07/25 02:36:10;;;;;;;13.25;10.65;;;22.10;99.90;;;;;;5095355;28;20028;-76
2022/07/25 02:38:36;;;;;;;12.00;10.18;;;22.10;99.90;;;;;;5092452;28;20103;-78
2022/07/25 02:41:01;;;;;;;11.48;10.27;;;22.10;99.90;;;;;;5075021;28;20117;-78
2022/07/25 02:43:27;;;;;;;12.30;11.20;;;22.00;99.90;;;;;;5088945;28;20081;-77
2022/07/25 02:45:53;;;;;;;11.15;10.10;;;22.10;99.90;;;;;;5095044;28;20020;-76
2022/07/25 02:48:18;;;;;;;11.95;10.75;;;22.00;99.90;;;;;;5083250;28;20035;-78
2022/07/25 02:50:44;;;;;;;11.30;9.82;;;22.00;99.90;;;;;;5088914;28;20534;-77
2022/07/25 02:53:10;;;;;;;11.20;10.10;;;21.90;99.90;;;;;;5085519;28;20032;-77
2022/07/25 02:55:35;;;;;;;10.77;9.93;;;21.90;99.90;;;;;;5095202;28;20031;-77
2022/07/25 02:58:01;;;;;;;11.10;9.65;;;21.90;99.90;;;;;;5094254;28;20012;-77
2022/07/25 03:00:26;;;;;;;11.30;10.30;;;21.90;99.90;;;;;;5095038;28;20375;-76
2022/07/25 03:02:52;;;;;;;11.60;10.60;;;21.90;99.90;;;;;;5094649;28;20016;-78
2022/07/25 03:05:18;;;;;;;11.63;10.27;;;21.90;99.90;;;;;;5094189;28;20073;-76
2022/07/25 03:07:44;;;;;;;11.48;10.38;;;21.90;99.90;;;;;;5080648;28;20020;-78
2022/07/25 03:10:12;;;;;;;10.68;9.82;;;21.90;99.90;;;;;;5094697;28;20031;-76
2022/07/25 03:12:39;;;;;;;11.80;9.93;;;21.90;99.90;;;;;;5093987;28;20051;-77
2022/07/25 03:15:06;;;;;;;11.07;10.07;;;21.90;99.90;;;;;;5094711;28;20047;-78
2022/07/25 03:17:32;;;;;;;10.35;9.30;;;21.90;99.90;;;;;;5094629;28;20024;-77
2022/07/25 03:19:57;;;;;;;10.13;9.23;;;21.90;99.90;;;;;;5094020;28;20420;-76
2022/07/25 03:22:24;;;;;;;10.70;9.70;;;21.90;99.90;;;;;;5094376;28;20023;-78
2022/07/25 03:24:50;;;;;;;11.48;10.38;;;21.90;99.90;;;;;;5093837;28;20035;-76
2022/07/25 03:27:16;;;;;;;10.65;9.75;;;21.90;99.90;;;;;;5094155;28;20016;-76
2022/07/25 03:29:42;;;;;;;10.52;9.57;;;21.90;99.90;;;;;;5094427;28;20380;-76
2022/07/25 03:32:08;;;;;;;10.18;8.82;;;21.90;99.90;;;;;;5094136;28;20028;-77
2022/07/25 03:34:34;;;;;;;11.07;9.35;;;21.90;99.90;;;;;;5093675;28;20039;-77
2022/07/25 03:37:01;;;;;;;10.15;9.18;;;21.80;99.90;;;;;;5093982;28;20021;-77
2022/07/25 03:39:27;;;;;;;10.07;9.02;;;21.90;99.90;;;;;;5084872;28;20027;-77
2022/07/25 03:41:54;;;;;;;9.88;9.07;;;21.90;99.90;;;;;;5074898;28;20020;-78
2022/07/25 03:44:20;;;;;;;10.82;9.30;;;21.90;99.90;;;;;;5095026;28;20032;-78
2022/07/25 03:46:46;;;;;;;9.65;8.77;;;21.90;99.90;;;;;;5096856;28;20025;-78
2022/07/25 03:49:11;;;;;;;10.10;9.18;;;21.90;99.90;;;;;;5093735;28;20031;-76
2022/07/25 03:51:37;;;;;;;11.05;10.07;;;22.00;99.90;;;;;;5094314;28;20111;-77
2022/07/25 03:54:07;;;;;;;11.60;10.55;;;22.00;99.90;;;;;;5093563;28;20421;-76
2022/07/25 03:56:44;;;;;;;12.18;10.40;;;22.10;99.90;;;;;;5094411;28;20438;-77
2022/07/25 03:59:12;;;;;;;11.95;10.75;;;22.00;99.90;;;;;;5093383;28;20032;-77
2022/07/25 04:01:38;;;;;;;11.38;10.25;;;22.00;99.90;;;;;;5093230;28;20020;-76
2022/07/25 04:04:04;;;;;;;12.75;11.48;;;21.90;99.90;;;;;;5093372;28;20032;-76
2022/07/25 04:06:30;;;;;;;13.40;11.40;;;21.90;99.90;;;;;;5094057;28;20035;-77
2022/07/25 04:08:57;;;;;;;12.63;11.43;;;21.90;99.90;;;;;;5093099;28;20028;-77
2022/07/25 04:11:22;;;;;;;16.20;11.90;;;21.80;99.90;;;;;;5095522;28;20063;-77
2022/07/25 04:13:49;;;;;;;14.23;12.77;;;21.70;99.90;;;;;;5097186;28;20472;-76
2022/07/25 04:16:18;;;;;;;12.65;11.35;;;21.70;99.90;;;;;;5098140;28;20028;-77
2022/07/25 04:18:43;;;;;;;14.43;12.10;;;21.60;99.90;;;;;;5097301;28;20031;-77
2022/07/25 04:21:09;;;;;;;13.18;11.98;;;21.60;99.90;;;;;;5093650;28;20032;-77
2022/07/25 04:23:35;;;;;;;12.40;10.85;;;21.50;99.90;;;;;;5092845;28;20032;-77
2022/07/25 04:26:01;;;;;;;12.48;11.27;;;21.60;99.90;;;;;;5093002;28;20031;-77
2022/07/25 04:28:27;;;;;;;11.50;10.50;;;21.60;99.90;;;;;;5086827;28;20036;-77
2022/07/25 04:30:53;;;;;;;11.70;9.65;;;21.60;99.90;;;;;;5085215;28;20050;-78
2022/07/25 04:33:19;;;;;;;11.15;9.38;;;21.60;99.90;;;;;;5093323;28;20064;-77
2022/07/25 04:35:45;;;;;;;11.77;9.23;;;21.60;99.90;;;;;;5094168;28;20114;-77
2022/07/25 04:38:10;;;;;;;9.82;8.93;;;21.70;99.90;;;;;;5094385;28;20070;-76
2022/07/25 04:40:36;;;;;;;12.70;8.75;;;21.60;99.90;;;;;;5080188;28;20081;-76
2022/07/25 04:43:03;;;;;;;7.85;7.15;;;21.60;99.90;;;;;;5093919;28;20425;-77
2022/07/25 04:45:29;;;;;;;10.43;7.78;;;21.60;99.90;;;;;;5094273;28;20035;-77
2022/07/25 04:47:54;;;;;;;8.10;6.60;;;21.60;99.90;;;;;;5094301;28;20023;-77
2022/07/25 04:50:20;;;;;;;6.55;5.95;;;21.70;99.90;;;;;;5094752;28;20407;-77
2022/07/25 04:52:45;;;;;;;6.07;5.57;;;21.70;99.90;;;;;;5094543;28;20077;-77
2022/07/25 04:55:11;;;;;;;6.57;5.97;;;21.70;99.90;;;;;;5094737;28;20055;-77
2022/07/25 04:57:37;;;;;;;6.38;5.78;;;21.80;99.90;;;;;;5093908;28;20027;-77
2022/07/25 05:00:08;;;;;;;6.97;6.38;;;21.90;99.90;;;;;;5093982;28;20024;-77
2022/07/25 05:02:34;;;;;;;7.00;6.38;;;22.00;99.90;;;;;;5093862;28;20027;-77
2022/07/25 05:05:00;;;;;;;7.07;6.38;;;22.10;99.90;;;;;;5102051;28;20110;-77
2022/07/25 05:07:26;;;;;;;7.80;5.63;;;22.20;99.90;;;;;;5105979;28;20028;-76
2022/07/25 05:09:51;;;;;;;5.57;5.18;;;22.30;99.90;;;;;;5103633;28;20402;-76
2022/07/25 05:12:17;;;;;;;6.03;5.43;;;22.30;99.90;;;;;;5106341;28;20040;-76
2022/07/25 05:14:43;;;;;;;5.05;4.63;;;22.50;99.90;;;;;;5103928;28;20024;-77
2022/07/25 05:17:09;;;;;;;7.65;4.63;;;22.50;99.90;;;;;;5105741;28;20016;-76
2022/07/25 05:19:35;;;;;;;5.28;4.78;;;22.60;99.90;;;;;;5105379;28;20028;-77
2022/07/25 05:22:01;;;;;;;5.53;4.35;;;22.60;99.90;;;;;;5104342;28;20056;-77
2022/07/25 05:24:27;;;;;;;5.65;4.45;;;22.60;99.90;;;;;;5104994;28;20047;-76
2022/07/25 05:26:52;;;;;;;5.20;4.57;;;22.60;99.90;;;;;;5099440;28;20016;-78
2022/07/25 05:29:18;;;;;;;4.80;4.30;;;22.60;99.90;;;;;;5101199;28;20056;-77
2022/07/25 05:31:44;;;;;;;8.52;5.85;;;22.70;99.90;;;;;;5101641;28;20058;-77
2022/07/25 05:34:10;;;;;;;5.70;5.18;;;22.80;99.90;;;;;;5095874;28;20134;-78
2022/07/25 05:36:35;;;;;;;7.30;5.53;;;22.80;99.90;;;;;;5095905;28;20103;-77
2022/07/25 05:39:02;;;;;;;5.00;4.43;;;22.80;99.90;;;;;;5086548;28;20463;-76
2022/07/25 05:41:27;;;;;;;5.45;4.60;;;22.80;99.90;;;;;;5084155;28;20052;-78
2022/07/25 05:43:53;;;;;;;5.22;4.50;;;22.80;99.90;;;;;;5091688;28;20443;-77
2022/07/25 05:46:18;;;;;;;4.88;4.50;;;22.90;99.90;;;;;;5092940;28;20032;-78
2022/07/25 05:48:44;;;;;;;4.20;3.90;;;22.90;99.90;;;;;;5097182;28;20110;-77
2022/07/25 05:51:10;;;;;;;4.55;4.25;;;22.90;99.90;;;;;;5096538;28;20035;-77
2022/07/25 05:53:36;;;;;;;4.65;4.25;;;22.90;99.90;;;;;;5095850;28;20127;-76
2022/07/25 05:56:02;;;;;;;6.03;4.22;;;23.00;99.90;;;;;;5081955;28;20024;-77
2022/07/25 05:58:28;;;;;;;4.65;4.30;;;23.00;99.90;;;;;;5096360;28;20470;-77
2022/07/25 06:00:53;;;;;;;4.18;3.67;;;23.10;99.90;;;;;;5095526;28;20028;-76
2022/07/25 06:03:20;;;;;;;3.35;3.15;;;23.20;99.90;;;;;;5085247;28;20545;-77
2022/07/25 06:05:46;;;;;;;4.28;3.92;;;23.20;99.90;;;;;;5074764;28;20396;-76
2022/07/25 06:08:12;;;;;;;3.47;3.10;;;23.30;99.90;;;;;;5074382;28;20052;-78
2022/07/25 06:10:40;;;;;;;3.22;2.92;;;23.30;99.90;;;;;;5077313;28;20231;-76
2022/07/25 06:13:06;;;;;;;4.45;3.35;;;23.40;99.90;;;;;;5074567;28;20075;-75
2022/07/25 06:15:32;;;;;;;2.70;2.50;;;23.40;99.90;;;;;;5074520;28;20063;-78
2022/07/25 06:17:58;;;;;;;3.42;2.50;;;23.40;99.90;;;;;;5073323;28;20476;-76
2022/07/25 06:20:27;;;;;;;4.35;2.55;;;23.40;99.90;;;;;;5072998;28;20025;-75
2022/07/25 06:22:52;;;;;;;3.42;1.90;;;23.50;99.90;;;;;;5072684;28;20036;-75
2022/07/25 06:25:18;;;;;;;2.50;2.05;;;23.60;99.90;;;;;;5072263;28;20387;-76
2022/07/25 06:27:43;;;;;;;3.25;2.47;;;23.70;99.90;;;;;;5072782;28;20118;-75
2022/07/25 06:30:11;;;;;;;2.78;1.58;;;23.60;99.90;;;;;;5073497;28;20139;-76
2022/07/25 06:32:37;;;;;;;5.55;2.20;;;23.60;99.90;;;;;;5074082;28;20575;-76
2022/07/25 06:35:02;;;;;;;5.95;2.03;;;23.60;99.90;;;;;;5073933;28;20102;-76
2022/07/25 06:37:28;;;;;;;2.95;2.00;;;23.50;99.90;;;;;;5073848;28;20031;-74
2022/07/25 06:39:54;;;;;;;2.42;1.80;;;23.50;99.90;;;;;;5076282;28;20012;-75
2022/07/25 06:42:20;;;;;;;2.08;1.88;;;23.50;99.90;;;;;;5073984;28;20476;-75
2022/07/25 06:44:45;;;;;;;2.03;1.65;;;23.40;99.90;;;;;;5073101;28;20032;-73
2022/07/25 06:47:11;;;;;;;3.13;2.30;;;23.30;99.90;;;;;;5073392;28;20455;-76
2022/07/25 06:49:44;;;;;;;2.33;1.90;;;23.40;99.90;;;;;;5082134;28;20103;-76
2022/07/25 06:52:09;;;;;;;3.90;2.05;;;23.40;99.90;;;;;;5074881;28;20028;-75
2022/07/25 06:54:35;;;;;;;1.98;1.65;;;23.40;99.90;;;;;;5073887;28;20353;-77
2022/07/25 06:57:01;;;;;;;2.25;1.70;;;23.40;99.90;;;;;;5073116;28;20070;-77
2022/07/25 06:59:26;;;;;;;2.33;1.75;;;23.40;99.90;;;;;;5073139;28;20047;-78
2022/07/25 07:01:52;;;;;;;5.32;1.70;;;23.30;99.90;;;;;;5074707;28;20035;-77
2022/07/25 07:04:19;;;;;;;4.50;1.60;;;23.40;99.90;;;;;;5074359;28;20033;-78
2022/07/25 07:06:45;;;;;;;8.45;1.83;;;23.30;99.90;;;;;;5074851;28;20024;-78
2022/07/25 07:09:10;;;;;;;3.85;1.48;;;23.30;99.90;;;;;;5073638;28;20028;-78
2022/07/25 07:11:36;;;;;;;2.17;1.60;;;23.30;99.90;;;;;;5074117;28;20076;-78
2022/07/25 07:14:02;;;;;;;2.85;2.00;;;23.30;99.90;;;;;;5078146;28;20101;-77
2022/07/25 07:16:28;;;;;;;6.32;1.80;;;23.40;99.90;;;;;;5077135;28;20016;-77
2022/07/25 07:18:54;;;;;;;3.28;1.50;;;23.50;99.90;;;;;;5072826;28;20027;-77
2022/07/25 07:21:20;;;;;;;2.30;1.40;;;23.60;99.90;;;;;;5074585;28;20024;-77
2022/07/25 07:23:46;;;;;;;3.22;1.10;;;23.80;99.90;;;;;;5081022;28;20021;-76
2022/07/25 07:26:12;;;;;;;5.35;2.08;;;23.80;99.90;;;;;;5076175;28;20074;-77
2022/07/25 07:28:37;;;;;;;4.68;1.58;;;23.90;99.90;;;;;;5075652;28;20028;-77
2022/07/25 07:31:03;;;;;;;3.05;1.40;;;23.90;99.90;;;;;;5073983;28;20028;-78
2022/07/25 07:33:29;;;;;;;3.85;1.33;;;23.80;99.90;;;;;;5076618;28;20028;-78
2022/07/25 07:35:55;;;;;;;4.85;1.23;;;23.80;99.90;;;;;;5073743;28;20498;-76
2022/07/25 07:38:25;;;;;;;4.20;1.10;;;23.80;99.90;;;;;;5076957;28;20032;-78
2022/07/25 07:40:51;;;;;;;4.68;2.03;;;23.80;99.90;;;;;;5073603;28;20395;-76
2022/07/25 07:43:16;;;;;;;6.38;1.85;;;23.90;99.90;;;;;;5074350;28;20024;-76
2022/07/25 07:45:43;;;;;;;6.28;1.40;;;24.00;99.90;;;;;;5074503;28;20111;-77
2022/07/25 07:48:09;;;;;;;4.63;1.52;;;24.00;99.90;;;;;;5073077;28;20029;-77
2022/07/25 07:50:35;;;;;;;3.83;1.42;;;24.00;99.90;;;;;;5073971;28;20053;-78
2022/07/25 07:53:01;;;;;;;13.30;3.45;;;24.00;99.90;;;;;;5072825;28;20476;-77
2022/07/25 07:55:47;;;;;;;3.40;1.35;;;23.90;99.90;;;;;;5073645;28;20043;-79
2022/07/25 07:58:17;;;;;;;4.18;1.30;;;24.00;99.90;;;;;;5074077;28;20503;-78
2022/07/25 08:00:45;;;;;;;4.90;1.63;;;24.00;99.90;;;;;;5073235;28;20025;-77
2022/07/25 08:03:11;;;;;;;7.53;1.25;;;23.90;99.90;;;;;;5073416;28;20056;-78
2022/07/25 08:05:40;;;;;;;4.70;1.58;;;23.90;99.90;;;;;;5077929;28;20051;-77
2022/07/25 08:08:08;;;;;;;5.03;1.52;;;23.90;99.90;;;;;;5093100;28;20052;-77
2022/07/25 08:10:37;;;;;;;4.85;1.85;;;23.80;99.90;;;;;;5078767;28;20475;-78
2022/07/25 08:13:14;;;;;;;6.32;1.75;;;23.90;99.90;;;;;;5094735;28;20028;-77
2022/07/25 08:15:41;;;;;;;5.32;2.10;;;24.10;99.90;;;;;;5092640;28;20530;-74
2022/07/25 08:18:07;;;;;;;3.83;1.60;;;24.20;99.90;;;;;;5093038;28;20028;-75
2022/07/25 08:20:32;;;;;;;4.22;1.65;;;24.10;99.90;;;;;;5094425;28;20031;-78
2022/07/25 08:22:58;;;;;;;4.80;1.92;;;24.20;99.90;;;;;;5094005;28;20091;-79
2022/07/25 08:25:24;;;;;;;6.97;2.10;;;24.20;99.90;;;;;;5094894;28;20489;-77
2022/07/25 08:27:52;;;;;;;7.50;2.50;;;24.30;99.90;;;;;;5094039;28;20028;-77
2022/07/25 08:30:18;;;;;;;5.35;1.95;;;24.30;99.90;;;;;;5093376;28;20028;-77
2022/07/25 08:32:55;;;;;;;6.72;2.00;;;24.30;99.90;;;;;;5093686;28;20016;-77
2022/07/25 08:35:23;;;;;;;6.43;1.90;;;24.20;99.90;;;;;;5093199;28;20036;-76
2022/07/25 08:37:49;;;;;;;5.47;2.25;;;24.10;99.90;;;;;;5093310;28;20024;-77
2022/07/25 08:40:17;;;;;;;9.88;2.45;;;24.00;99.90;;;;;;5079992;28;20021;-78
2022/07/25 08:42:42;;;;;;;6.97;2.00;;;24.10;99.90;;;;;;5092964;28;20031;-79
2022/07/25 08:45:12;;;;;;;6.00;1.98;;;24.00;99.90;;;;;;5093565;28;20040;-78
2022/07/25 08:47:38;;;;;;;4.25;1.95;;;24.10;99.90;;;;;;5086930;28;20432;-78
2022/07/25 08:50:07;;;;;;;3.78;1.48;;;24.10;99.90;;;;;;5093708;28;20063;-77
2022/07/25 08:52:35;;;;;;;6.72;1.80;;;24.20;99.90;;;;;;5091007;28;20099;-77
2022/07/25 08:55:05;;;;;;;7.07;2.10;;;24.30;99.90;;;;;;5073737;28;20028;-77
2022/07/25 08:57:33;;;;;;;4.85;1.75;;;24.30;99.90;;;;;;5072397;28;20020;-78
2022/07/25 08:59:59;;;;;;;5.25;1.88;;;24.40;99.90;;;;;;5072601;28;20505;-77
2022/07/25 09:02:28;;;;;;;5.60;1.58;;;24.60;99.90;;;;;;5074206;28;20039;-76
2022/07/25 09:04:55;;;;;;;4.43;1.80;;;24.70;99.90;;;;;;5072119;28;20035;-76
2022/07/25 09:07:36;;;;;;;9.73;2.13;;;24.60;99.90;;;;;;5075332;28;20490;-77
2022/07/25 09:10:19;;;;;;;5.45;1.50;;;24.50;99.90;;;;;;5074258;28;20379;-79
2022/07/25 09:13:04;;;;;;;4.25;1.75;;;24.50;99.90;;;;;;5075171;28;20055;-78
2022/07/25 09:15:34;;;;;;;5.25;1.80;;;24.40;99.90;;;;;;5075605;28;20371;-77
2022/07/25 09:18:04;;;;;;;5.88;2.22;;;24.50;99.90;;;;;;5072804;28;20029;-77
2022/07/25 09:20:49;;;;;;;6.65;1.75;;;24.60;99.90;;;;;;5072976;28;20025;-77
2022/07/25 09:23:31;;;;;;;5.20;2.60;;;25.00;99.90;;;;;;5073356;28;20025;-77
2022/07/25 09:26:13;;;;;;;6.47;1.83;;;25.40;99.90;;;;;;5072350;28;20024;-77
2022/07/25 09:28:43;;;;;;;4.65;1.90;;;25.60;99.90;;;;;;5073365;28;20052;-78
2022/07/25 09:31:09;;;;;;;5.25;1.98;;;25.70;99.90;;;;;;5072622;28;20464;-76
2022/07/25 09:33:48;;;;;;;4.72;1.73;;;25.60;98.90;;;;;;5072812;28;20021;-76
2022/07/25 09:36:14;;;;;;;4.50;1.92;;;25.60;99.20;;;;;;5073262;28;20078;-76
2022/07/25 09:39:00;;;;;;;7.93;1.88;;;25.50;99.10;;;;;;5072430;28;20020;-77
2022/07/25 09:41:43;;;;;;;4.30;1.75;;;25.40;99.60;;;;;;5083975;28;20027;-77
2022/07/25 09:44:29;;;;;;;8.32;2.00;;;25.20;99.90;;;;;;5092468;28;20115;-77
2022/07/25 09:46:57;;;;;;;5.40;2.53;;;25.10;99.90;;;;;;5091525;28;20032;-77
2022/07/25 09:49:23;;;;;;;4.15;1.70;;;25.10;99.90;;;;;;5088368;28;20028;-71
2022/07/25 09:51:49;;;;;;;5.03;1.63;;;25.20;99.90;;;;;;5071374;28;20036;-72
2022/07/25 09:54:15;;;;;;;5.07;1.67;;;25.40;99.90;;;;;;5071226;28;20481;-72
2022/07/25 09:56:40;;;;;;;7.50;1.63;;;25.50;99.40;;;;;;5071916;28;20023;-77
2022/07/25 09:59:07;;;;;;;4.78;2.10;;;25.50;98.00;;;;;;5071918;28;20035;-76
2022/07/25 10:01:54;;;;;;;5.25;1.25;;;25.30;97.20;;;;;;5070932;28;20403;-76
2022/07/25 10:04:25;;;;;;;8.93;1.83;;;25.30;97.60;;;;;;5071765;28;20063;-77
2022/07/25 10:07:04;;;;;;;8.88;2.10;;;25.20;98.50;;;;;;5071384;28;20511;-77
2022/07/25 10:09:30;;;;;;;7.43;1.85;;;25.00;98.00;;;;;;5072272;28;20032;-78
2022/07/25 10:12:07;;;;;;;6.82;2.03;;;24.90;98.20;;;;;;5071571;28;20071;-76
2022/07/25 10:14:34;;;;;;;6.30;2.30;;;25.00;98.70;;;;;;5079045;28;20064;-76
2022/07/25 10:17:00;;;;;;;8.50;2.55;;;25.00;98.60;;;;;;5076169;28;20035;-77
2022/07/25 10:19:55;;;;;;;9.55;2.55;;;25.10;98.90;;;;;;5082584;28;20021;-77
2022/07/25 10:22:44;;;;;;;8.05;2.40;;;25.20;99.00;;;;;;5045021;28;20076;-78
2022/07/25 10:25:20;;;;;;;5.60;2.50;;;25.40;99.00;;;;;;5072925;28;20119;-79
2022/07/25 10:27:48;;;;;;;9.68;2.45;;;25.70;98.80;;;;;;5074088;28;20468;-79
2022/07/25 10:30:27;;;;;;;7.43;2.22;;;25.90;97.60;;;;;;5074156;28;20024;-78
2022/07/25 10:32:58;;;;;;;6.85;2.88;;;26.00;96.90;;;;;;5082834;28;20444;-77
2022/07/25 10:35:25;;;;;;;7.95;2.20;;;26.10;97.20;;;;;;5078483;28;20033;-77
2022/07/25 10:37:53;;;;;;;9.73;2.85;;;26.00;97.00;;;;;;5079342;28;20048;-78
2022/07/25 10:40:26;;;;;;;9.63;2.33;;;25.80;97.50;;;;;;5077072;28;20032;-79
2022/07/25 10:43:08;;;;;;;6.68;2.10;;;25.40;97.40;;;;;;5085729;28;20089;-78
2022/07/25 10:45:47;;;;;;;5.90;2.75;;;25.20;98.10;;;;;;5096179;28;20101;-79
2022/07/25 10:48:28;;;;;;;10.27;3.25;;;25.10;98.30;;;;;;5095601;28;20020;-78
2022/07/25 10:51:05;;;;;;;6.90;3.20;;;24.90;98.80;;;;;;5094912;28;20072;-77
2022/07/25 10:53:31;;;;;;;6.38;2.35;;;24.70;99.20;;;;;;5094017;28;20093;-77
2022/07/25 10:56:02;;;;;;;10.48;3.40;;;24.30;99.90;;;;;;5073756;28;20032;-76
2022/07/25 10:58:50;;;;;;;11.23;3.15;;;24.10;99.90;;;;;;5074197;28;20121;-77
2022/07/25 11:01:26;;;;;;;7.97;2.58;;;24.10;99.90;;;;;;5076723;28;20024;-77
2022/07/25 11:03:53;;;;;;;8.05;2.90;;;24.00;99.90;;;;;;5077508;28;20031;-78
2022/07/25 11:06:33;;;;;;;8.02;2.40;;;24.00;99.70;;;;;;5080457;28;20106;-77
2022/07/25 11:09:00;;;;;;;6.57;2.40;;;23.80;99.80;;;;;;5079486;28;20108;-78
2022/07/25 11:11:34;;;;;;;5.43;2.13;;;23.70;99.80;;;;;;5074931;28;20507;-78
2022/07/25 11:14:00;;;;;;;11.15;2.60;;;23.60;99.90;;;;;;5074218;28;20028;-78
2022/07/25 11:16:26;;;;;;;9.60;4.00;;;23.70;99.90;;;;;;5076256;28;20111;-78
2022/07/25 11:18:55;;;;;;;5.78;2.72;;;23.80;99.90;;;;;;5075730;28;20040;-78
2022/07/25 11:21:21;;;;;;;9.48;2.72;;;24.00;99.90;;;;;;5074220;28;20044;-78
2022/07/25 11:23:51;;;;;;;9.63;3.10;;;24.20;99.90;;;;;;5080681;28;20074;-78
2022/07/25 11:26:19;;;;;;;8.32;2.90;;;24.20;99.90;;;;;;5074239;28;20476;-76
2022/07/25 11:28:47;;;;;;;9.77;3.00;;;24.20;99.90;;;;;;5076838;28;20418;-78
2022/07/25 11:31:15;;;;;;;6.13;2.50;;;24.30;99.90;;;;;;5073848;28;20029;-78
2022/07/25 11:33:45;;;;;;;6.32;2.45;;;24.20;99.30;;;;;;5075365;28;20025;-77
2022/07/25 11:36:11;;;;;;;6.05;2.70;;;24.20;99.20;;;;;;5075290;28;20360;-77
2022/07/25 11:38:39;;;;;;;19.63;3.35;;;24.20;99.60;;;;;;5074191;28;20062;-79
2022/07/25 11:41:05;;;;;;;9.60;2.60;;;24.20;99.40;;;;;;5073995;28;20093;-78
2022/07/25 11:43:32;;;;;;;7.68;2.30;;;24.30;99.20;;;;;;5073004;28;20024;-78
2022/07/25 11:46:08;;;;;;;4.63;1.70;;;24.30;98.10;;;;;;5071960;28;20028;-77
2022/07/25 11:48:39;;;;;;;3.92;1.90;;;24.50;97.80;;;;;;5076481;28;20035;-77
2022/07/25 11:51:12;;;;;;;4.60;2.10;;;24.60;98.10;;;;;;5074705;28;20020;-77
2022/07/25 11:53:40;;;;;;;5.97;1.80;;;24.70;96.80;;;;;;5075085;28;20024;-77
2022/07/25 11:56:15;;;;;;;6.18;2.10;;;24.70;95.80;;;;;;5080706;28;20036;-76
2022/07/25 11:58:41;;;;;;;7.25;2.17;;;24.60;95.80;;;;;;5077055;28;20021;-75
2022/07/25 12:01:14;;;;;;;6.32;2.03;;;24.40;95.80;;;;;;5078639;28;20020;-76
2022/07/25 12:03:40;;;;;;;10.77;2.38;;;24.40;95.70;;;;;;5075033;28;20036;-76
2022/07/25 12:06:11;;;;;;;5.00;1.95;;;24.40;95.10;;;;;;5083421;28;20448;-77
2022/07/25 12:08:39;;;;;;;8.85;2.00;;;24.60;95.50;;;;;;5074848;28;20020;-77
2022/07/25 12:11:19;;;;;;;7.65;1.30;;;24.90;94.70;;;;;;5074389;28;20048;-77
2022/07/25 12:13:45;;;;;;;3.88;1.27;;;25.00;93.60;;;;;;5077527;28;20039;-76
2022/07/25 12:16:11;;;;;;;5.68;1.63;;;25.10;93.00;;;;;;5074324;28;20035;-76
2022/07/25 12:18:37;;;;;;;6.82;1.77;;;25.00;93.10;;;;;;5079605;28;20442;-76
2022/07/25 12:21:03;;;;;;;8.13;2.00;;;24.90;93.60;;;;;;5074079;28;20064;-77
2022/07/25 12:23:29;;;;;;;7.88;2.10;;;25.00;94.10;;;;;;5083530;28;20098;-77
2022/07/25 12:25:54;;;;;;;3.50;2.47;;;25.00;94.00;;;;;;5076186;28;20027;-77
2022/07/25 12:28:20;;;;;;;5.22;1.73;;;25.10;94.00;;;;;;5074272;28;20028;-77
2022/07/25 12:30:48;;;;;;;4.78;2.08;;;25.00;93.80;;;;;;5074287;28;20479;-77
2022/07/25 12:33:14;;;;;;;4.80;2.00;;;24.80;94.30;;;;;;5079033;28;20074;-77
2022/07/25 12:35:41;;;;;;;7.85;2.40;;;24.80;94.10;;;;;;5073154;28;20067;-76
2022/07/25 12:38:07;;;;;;;7.88;1.75;;;24.80;94.50;;;;;;5073790;28;20476;-76
2022/07/25 12:40:33;;;;;;;5.88;2.28;;;24.80;94.20;;;;;;5079058;28;20031;-77
2022/07/25 12:42:59;;;;;;;8.13;2.47;;;25.10;93.90;;;;;;5094301;28;20025;-77
2022/07/25 12:45:26;;;;;;;9.88;3.17;;;25.10;94.10;;;;;;5092458;28;20032;-78